createdAt,value
2018-01-23T00:00:57.184Z,2.76
2018-01-23T00:03:27.988Z,2.82
2018-01-23T00:05:58.372Z,2.85
2018-01-23T00:08:26.126Z,2.79
2018-01-23T00:11:00.974Z,2.76
2018-01-23T00:13:29.849Z,2.76
2018-01-23T00:15:57.584Z,2.83
2018-01-23T00:18:27.216Z,2.86
2018-01-23T00:20:54.980Z,2.86
2018-01-23T00:23:22.679Z,2.88
2018-01-23T00:25:50.420Z,2.96
2018-01-23T00:28:18.158Z,2.93
2018-01-23T00:30:45.864Z,2.90
2018-01-23T00:33:15.296Z,2.89
2018-01-23T00:35:43.106Z,2.88
2018-01-23T00:38:10.904Z,2.85
2018-01-23T00:40:41.234Z,2.87
2018-01-23T00:43:11.996Z,2.91
2018-01-23T00:45:40.544Z,2.91
2018-01-23T00:48:10.804Z,2.93
2018-01-23T00:50:40.318Z,2.98
2018-01-23T00:53:10.274Z,3.01
2018-01-23T00:55:37.990Z,3.03
2018-01-23T00:58:05.658Z,3.03
2018-01-23T01:00:33.377Z,3.02
2018-01-23T01:03:01.101Z,2.99
2018-01-23T01:05:28.820Z,3.04
2018-01-23T01:07:58.140Z,3.05
2018-01-23T01:10:25.876Z,3.03
2018-01-23T01:12:54.494Z,3.00
2018-01-23T01:15:22.162Z,2.97
2018-01-23T01:17:50.106Z,2.99
2018-01-23T01:20:18.815Z,3.01
2018-01-23T01:22:46.502Z,2.99
2018-01-23T01:25:14.248Z,2.95
2018-01-23T01:27:42.723Z,2.91
2018-01-23T01:30:10.413Z,2.89
2018-01-23T01:32:38.078Z,2.89
2018-01-23T01:35:08.398Z,2.87
2018-01-23T01:37:36.104Z,2.89
2018-01-23T01:40:03.790Z,2.92
2018-01-23T01:42:32.198Z,2.95
2018-01-23T01:45:00.592Z,2.98
2018-01-23T01:47:28.390Z,2.98
2018-01-23T01:49:56.046Z,3.02
2018-01-23T01:52:23.876Z,3.03
2018-01-23T01:54:51.624Z,3.08
2018-01-23T01:57:19.367Z,3.06
2018-01-23T01:59:47.000Z,3.03
2018-01-23T02:02:14.787Z,3.01
2018-01-23T02:04:42.436Z,2.99
2018-01-23T02:07:10.065Z,2.93
2018-01-23T02:09:37.792Z,2.88
2018-01-23T02:12:05.418Z,2.86
2018-01-23T02:14:33.182Z,2.83
2018-01-23T02:17:00.845Z,2.80
2018-01-23T02:19:28.497Z,2.78
2018-01-23T02:21:56.288Z,2.76
2018-01-23T02:24:23.931Z,2.78
2018-01-23T02:26:52.352Z,2.76
2018-01-23T02:29:19.977Z,2.74
2018-01-23T02:31:47.668Z,2.73
2018-01-23T02:34:16.943Z,2.72
2018-01-23T02:36:44.748Z,2.69
2018-01-23T02:39:13.987Z,2.67
2018-01-23T02:41:42.419Z,2.67
2018-01-23T02:44:10.815Z,2.68
2018-01-23T02:46:38.473Z,2.69
2018-01-23T02:49:06.133Z,2.67
2018-01-23T02:51:33.795Z,2.65
2018-01-23T02:54:01.496Z,2.62
2018-01-23T02:56:29.203Z,2.62
2018-01-23T02:58:56.869Z,2.59
2018-01-23T03:01:24.552Z,2.58
2018-01-23T03:03:52.207Z,2.56
2018-01-23T03:06:19.901Z,2.53
2018-01-23T03:08:47.616Z,2.51
2018-01-23T03:11:15.309Z,2.49
2018-01-23T03:13:42.965Z,2.48
2018-01-23T03:16:10.639Z,2.46
2018-01-23T03:18:38.259Z,2.46
2018-01-23T03:21:05.872Z,2.46
2018-01-23T03:23:33.531Z,2.46
2018-01-23T03:26:01.177Z,2.45
2018-01-23T03:28:28.821Z,2.44
2018-01-23T03:30:57.212Z,2.44
2018-01-23T03:33:24.895Z,2.45
2018-01-23T03:35:54.573Z,2.45
2018-01-23T03:38:22.429Z,2.45
2018-01-23T03:40:50.113Z,2.46
2018-01-23T03:45:51.973Z,2.48
2018-01-23T03:48:19.627Z,2.47
2018-01-23T03:50:47.285Z,2.48
2018-01-23T03:53:14.951Z,2.49
2018-01-23T03:55:43.351Z,2.50
2018-01-23T03:58:11.020Z,2.50
2018-01-23T04:00:38.701Z,2.49
2018-01-23T04:03:06.547Z,2.49
2018-01-23T04:05:34.373Z,2.52
2018-01-23T04:08:02.056Z,2.56
2018-01-23T04:10:29.806Z,2.57
2018-01-23T04:12:57.511Z,2.58
2018-01-23T04:15:25.205Z,2.61
2018-01-23T04:17:52.921Z,2.65
2018-01-23T04:20:20.693Z,2.69
2018-01-23T04:22:48.363Z,2.70
2018-01-23T04:25:16.043Z,2.70
2018-01-23T04:27:44.568Z,2.70
2018-01-23T04:30:12.284Z,2.69
2018-01-23T04:32:39.916Z,2.70
2018-01-23T04:35:08.531Z,2.72
2018-01-23T04:37:36.212Z,2.73
2018-01-23T04:40:04.001Z,2.76
2018-01-23T04:42:31.668Z,2.82
2018-01-23T04:44:59.528Z,2.92
2018-01-23T04:47:27.232Z,2.91
2018-01-23T04:49:54.963Z,2.92
2018-01-23T04:52:24.744Z,2.92
2018-01-23T04:54:52.456Z,2.95
2018-01-23T04:57:20.164Z,2.99
2018-01-23T04:59:47.818Z,2.97
2018-01-23T05:02:15.958Z,2.96
2018-01-23T05:04:44.442Z,2.97
2018-01-23T05:07:12.820Z,2.99
2018-01-23T05:09:40.497Z,3.00
2018-01-23T05:12:08.156Z,2.99
2018-01-23T05:14:35.852Z,2.97
2018-01-23T05:17:06.190Z,2.95
2018-01-23T05:19:33.926Z,2.94
2018-01-23T05:22:01.558Z,2.97
2018-01-23T05:24:29.376Z,2.99
2018-01-23T05:26:57.029Z,2.99
2018-01-23T05:29:24.844Z,2.97
2018-01-23T05:31:52.502Z,2.95
2018-01-23T05:34:20.236Z,2.98
2018-01-23T05:36:47.873Z,2.99
2018-01-23T05:39:15.568Z,2.98
2018-01-23T05:41:43.346Z,2.98
2018-01-23T05:44:10.985Z,2.97
2018-01-23T05:46:39.387Z,2.99
2018-01-23T05:49:07.061Z,2.99
2018-01-23T05:51:37.366Z,2.96
2018-01-23T05:54:05.990Z,2.96
2018-01-23T05:56:33.676Z,2.96
2018-01-23T05:59:01.344Z,2.96
2018-01-23T06:01:28.964Z,2.93
2018-01-23T06:03:56.675Z,2.92
2018-01-23T06:06:24.850Z,2.93
2018-01-23T06:08:52.488Z,2.93
2018-01-23T06:11:20.152Z,2.97
2018-01-23T06:13:49.702Z,2.95
2018-01-23T06:16:17.492Z,2.93
2018-01-23T06:18:46.738Z,2.91
2018-01-23T06:21:15.276Z,2.89
2018-01-23T06:23:44.582Z,2.86
2018-01-23T06:26:12.320Z,2.82
2018-01-23T06:28:40.743Z,2.81
2018-01-23T06:31:08.572Z,2.81
2018-01-23T06:33:36.228Z,2.83
2018-01-23T06:36:04.660Z,2.84
2018-01-23T06:38:32.414Z,2.86
2018-01-23T06:41:00.076Z,2.89
2018-01-23T06:43:27.957Z,2.88
2018-01-23T06:45:57.267Z,2.88
2018-01-23T06:48:26.668Z,2.86
2018-01-23T06:50:54.392Z,2.85
2018-01-23T06:53:22.034Z,2.82
2018-01-23T06:55:49.805Z,2.80
2018-01-23T06:58:20.139Z,2.78
2018-01-23T07:00:47.850Z,2.80
2018-01-23T07:03:16.232Z,2.83
2018-01-23T07:05:43.928Z,2.84
2018-01-23T07:08:11.593Z,2.85
2018-01-23T07:10:39.244Z,2.86
2018-01-23T07:13:07.008Z,2.84
2018-01-23T07:15:36.464Z,2.83
2018-01-23T07:18:04.169Z,2.83
2018-01-23T07:20:32.978Z,2.81
2018-01-23T07:23:00.676Z,2.81
2018-01-23T07:25:30.307Z,2.81
2018-01-23T07:27:58.040Z,2.82
2018-01-23T07:30:27.332Z,2.87
2018-01-23T07:32:55.171Z,2.86
2018-01-23T07:35:22.809Z,2.87
2018-01-23T07:37:50.503Z,2.89
2018-01-23T07:40:18.288Z,2.92
2018-01-23T07:42:45.988Z,2.93
2018-01-23T07:45:13.652Z,2.93
2018-01-23T07:47:42.095Z,2.94
2018-01-23T07:50:09.716Z,2.93
2018-01-23T07:52:37.404Z,2.95
2018-01-23T07:55:05.049Z,2.96
2018-01-23T07:57:34.474Z,2.97
2018-01-23T08:00:02.164Z,2.99
2018-01-23T08:02:29.832Z,2.98
2018-01-23T08:04:59.148Z,2.98
2018-01-23T08:07:26.860Z,3.00
2018-01-23T08:09:54.674Z,3.00
2018-01-23T08:12:22.481Z,3.02
2018-01-23T08:14:50.154Z,3.04
2018-01-23T08:17:17.797Z,3.06
2018-01-23T08:19:45.508Z,3.10
2018-01-23T08:25:03.507Z,3.16
2018-01-23T08:27:31.148Z,3.20
2018-01-23T08:29:58.920Z,3.22
2018-01-23T08:32:26.532Z,3.23
2018-01-23T08:34:54.199Z,3.24
2018-01-23T08:37:21.852Z,3.28
2018-01-23T08:39:49.680Z,3.33
2018-01-23T08:42:17.556Z,3.38
2018-01-23T08:44:45.154Z,3.42
2018-01-23T08:47:12.832Z,3.45
2018-01-23T08:49:42.310Z,3.50
2018-01-23T08:52:10.796Z,3.54
2018-01-23T08:54:40.197Z,3.56
2018-01-23T08:57:07.960Z,3.59
2018-01-23T08:59:37.382Z,3.59
2018-01-23T09:02:05.120Z,3.63
2018-01-23T09:04:32.776Z,3.63
2018-01-23T09:07:02.237Z,3.65
2018-01-23T09:09:30.028Z,3.66
2018-01-23T09:11:57.664Z,3.69
2018-01-23T09:14:25.376Z,3.73
2018-01-23T09:16:53.443Z,3.75
2018-01-23T09:19:22.036Z,3.76
2018-01-23T09:21:49.694Z,3.77
2018-01-23T09:24:17.340Z,3.82
2018-01-23T09:26:45.066Z,3.89
2018-01-23T09:29:12.714Z,3.90
2018-01-23T09:31:40.353Z,3.89
2018-01-23T09:34:08.024Z,3.87
2018-01-23T09:36:35.667Z,3.86
2018-01-23T09:39:03.558Z,3.82
2018-01-23T09:41:31.240Z,3.84
2018-01-23T09:43:58.976Z,3.83
2018-01-23T09:46:26.676Z,3.83
2018-01-23T09:48:54.386Z,3.85
2018-01-23T09:51:22.057Z,3.86
2018-01-23T09:53:51.807Z,3.86
2018-01-23T09:56:21.445Z,3.90
2018-01-23T09:58:49.453Z,3.91
2018-01-23T10:01:18.771Z,3.93
2018-01-23T10:03:46.515Z,3.93
2018-01-23T10:06:14.227Z,3.95
2018-01-23T10:08:41.891Z,3.97
2018-01-23T10:11:09.631Z,4.01
2018-01-23T10:13:37.303Z,4.04
2018-01-23T10:16:06.701Z,4.06
2018-01-23T10:18:34.381Z,4.08
2018-01-23T10:21:02.924Z,4.10
2018-01-23T10:23:30.575Z,4.12
2018-01-23T10:26:01.056Z,4.16
2018-01-23T10:28:28.786Z,4.18
2018-01-23T10:30:59.185Z,4.21
2018-01-23T10:33:26.898Z,4.25
2018-01-23T15:28:55.033Z,4.84
2018-01-23T15:31:22.675Z,4.84
2018-01-23T15:33:51.119Z,4.84
2018-01-23T15:36:18.768Z,4.83
2018-01-23T15:38:46.454Z,4.81
2018-01-23T15:41:16.193Z,4.80
2018-01-23T15:43:44.880Z,4.79
2018-01-23T15:46:12.501Z,4.77
2018-01-23T15:48:40.195Z,4.73
2018-01-23T15:51:09.602Z,4.76
2018-01-23T15:53:37.321Z,4.78
2018-01-23T15:56:05.058Z,4.78
2018-01-23T15:58:32.744Z,4.77
2018-01-23T16:01:00.452Z,4.76
2018-01-23T16:03:28.160Z,4.73
2018-01-23T16:05:55.796Z,4.74
2018-01-23T16:08:23.604Z,4.75
2018-01-23T16:10:53.264Z,4.72
2018-01-23T16:13:20.962Z,4.69
2018-01-23T16:15:51.430Z,4.67
2018-01-23T16:18:19.145Z,4.64
2018-01-23T16:20:46.865Z,4.61
2018-01-23T16:23:14.583Z,4.61
2018-01-23T16:25:42.245Z,4.60
2018-01-23T16:28:09.936Z,4.57
2018-01-23T16:33:14.526Z,4.53
2018-01-23T16:35:42.292Z,4.51
2018-01-23T16:38:10.651Z,4.47
2018-01-23T16:40:39.446Z,4.45
2018-01-23T16:43:07.064Z,4.42
2018-01-23T16:45:36.483Z,4.39
2018-01-23T16:48:06.110Z,4.36
2018-01-23T16:50:34.268Z,4.34
2018-01-23T16:53:01.967Z,4.32
2018-01-23T16:55:29.622Z,4.31
2018-01-23T16:57:58.994Z,4.29
2018-01-23T17:00:26.744Z,4.29
2018-01-23T17:02:54.475Z,4.31
2018-01-23T17:05:23.911Z,4.29
2018-01-23T17:07:54.241Z,4.25
2018-01-23T17:10:22.031Z,4.24
2018-01-23T17:12:49.749Z,4.23
2018-01-23T17:15:17.471Z,4.21
2018-01-23T17:17:46.856Z,4.21
2018-01-23T17:20:14.702Z,4.19
2018-01-23T17:22:42.610Z,4.18
2018-01-23T17:25:11.046Z,4.17
2018-01-23T17:27:38.734Z,4.17
2018-01-23T17:30:07.034Z,4.18
2018-01-23T17:32:34.707Z,4.18
2018-01-23T17:35:03.425Z,4.21
2018-01-23T17:37:31.148Z,4.21
2018-01-23T17:40:03.149Z,4.23
2018-01-23T17:42:30.897Z,4.22
2018-01-23T17:45:00.294Z,4.22
2018-01-23T17:47:28.077Z,4.23
2018-01-23T17:49:55.869Z,4.23
2018-01-23T17:52:23.654Z,4.23
2018-01-23T17:54:51.450Z,4.22
2018-01-23T17:57:20.964Z,4.21
2018-01-23T17:59:51.302Z,4.22
2018-01-23T18:02:19.070Z,4.21
2018-01-23T18:04:48.562Z,4.19
2018-01-23T18:07:16.311Z,4.19
2018-01-23T18:09:44.156Z,4.22
2018-01-23T18:12:11.869Z,4.25
2018-01-23T18:14:41.312Z,4.27
2018-01-23T18:17:11.756Z,4.28
2018-01-23T18:19:39.562Z,4.29
2018-01-23T18:22:09.234Z,4.31
2018-01-23T18:24:38.728Z,4.31
2018-01-23T18:27:08.359Z,4.31
2018-01-23T18:29:36.099Z,4.32
2018-01-23T18:32:03.799Z,4.32
2018-01-23T18:34:33.372Z,4.32
2018-01-23T18:37:01.127Z,4.30
2018-01-23T18:39:31.421Z,4.31
2018-01-23T18:41:59.290Z,4.33
2018-01-23T18:44:27.004Z,4.32
2018-01-23T18:46:56.192Z,4.32
2018-01-23T18:49:24.046Z,4.31
2018-01-23T18:51:51.843Z,4.30
2018-01-23T18:54:19.571Z,4.29
2018-01-23T18:56:49.112Z,4.26
2018-01-23T18:59:19.538Z,4.23
2018-01-23T19:01:48.897Z,4.20
2018-01-23T19:04:16.708Z,4.16
2018-01-23T19:06:45.436Z,4.14
2018-01-23T19:09:13.156Z,4.12
2018-01-23T19:11:40.860Z,4.13
2018-01-23T19:14:10.259Z,4.15
2018-01-23T19:16:38.839Z,4.14
2018-01-23T19:19:07.410Z,4.14
2018-01-23T19:21:35.257Z,4.13
2018-01-23T19:24:04.754Z,4.12
2018-01-23T19:26:33.554Z,4.10
2018-01-23T19:29:01.230Z,4.09
2018-01-23T19:31:28.919Z,4.10
2018-01-23T19:33:56.639Z,4.09
2018-01-23T19:36:24.447Z,4.08
2018-01-23T19:38:52.093Z,4.06
2018-01-23T19:41:19.819Z,4.06
2018-01-23T19:43:47.528Z,4.05
2018-01-23T19:46:17.010Z,4.06
2018-01-23T19:48:44.843Z,4.06
2018-01-23T19:51:12.644Z,4.04
2018-01-23T19:53:42.085Z,4.04
2018-01-23T19:56:10.603Z,4.01
2018-01-23T19:58:38.393Z,3.99
2018-01-23T20:01:09.005Z,4.01
2018-01-23T20:03:36.800Z,4.00
2018-01-23T20:06:04.553Z,3.99
2018-01-23T20:08:32.990Z,3.98
2018-01-23T20:11:00.774Z,3.99
2018-01-23T20:13:28.491Z,4.00
2018-01-23T20:15:56.172Z,4.00
2018-01-23T20:18:25.697Z,4.00
2018-01-23T20:20:53.517Z,4.00
2018-01-23T20:23:21.204Z,3.99
2018-01-23T20:25:50.581Z,4.00
2018-01-23T20:28:18.331Z,4.03
2018-01-23T20:30:46.029Z,4.06
2018-01-23T20:33:13.744Z,4.07
2018-01-23T20:35:41.485Z,4.08
2018-01-23T20:38:09.170Z,4.07
2018-01-23T20:40:36.918Z,4.09
2018-01-23T20:43:06.379Z,4.09
2018-01-23T20:45:36.250Z,4.09
2018-01-23T20:48:08.116Z,4.11
2018-01-23T20:50:35.874Z,4.12
2018-01-23T20:53:03.996Z,4.13
2018-01-23T20:55:31.838Z,4.15
2018-01-23T20:57:59.509Z,4.16
2018-01-23T21:00:27.247Z,4.17
2018-01-23T21:02:56.727Z,4.16
2018-01-23T21:05:24.511Z,4.15
2018-01-23T21:07:54.800Z,4.15
2018-01-23T21:10:22.555Z,4.14
2018-01-23T21:12:51.021Z,4.13
2018-01-23T21:15:20.637Z,4.10
2018-01-23T21:17:49.118Z,4.10
2018-01-23T21:20:16.965Z,4.08
2018-01-23T21:22:44.716Z,4.06
2018-01-23T21:25:14.014Z,4.05
2018-01-23T21:27:42.539Z,4.05
2018-01-23T21:30:10.484Z,4.05
2018-01-23T21:32:38.995Z,4.03
2018-01-23T21:35:06.759Z,4.02
2018-01-23T21:37:35.245Z,4.01
2018-01-23T21:40:03.622Z,4.00
2018-01-23T21:42:31.477Z,3.99
2018-01-23T21:44:59.243Z,4.00
2018-01-23T21:47:27.007Z,4.00
2018-01-23T21:49:54.729Z,4.00
2018-01-23T21:52:25.088Z,3.98
2018-01-23T21:54:54.758Z,3.97
2018-01-23T21:57:22.767Z,3.96
2018-01-23T21:59:50.580Z,3.97
2018-01-23T22:02:19.055Z,3.95
2018-01-23T22:04:47.620Z,3.95
2018-01-23T22:07:15.395Z,3.94
2018-01-23T22:09:45.886Z,3.94
2018-01-23T22:12:14.346Z,3.90
2018-01-23T22:14:43.758Z,3.90
2018-01-23T22:17:14.145Z,3.90
2018-01-23T22:19:42.816Z,3.89
2018-01-23T22:22:15.297Z,3.88
2018-01-23T22:24:44.943Z,3.87
2018-01-23T22:27:12.611Z,3.88
2018-01-23T22:29:42.039Z,3.89
2018-01-23T22:32:09.767Z,3.88
2018-01-23T22:34:40.986Z,3.88
2018-01-23T22:37:08.699Z,3.88
2018-01-23T22:39:36.355Z,3.87
2018-01-23T22:42:04.035Z,3.87
2018-01-23T22:44:32.446Z,3.87
2018-01-23T22:47:00.089Z,3.86
2018-01-23T22:49:29.820Z,3.85
2018-01-23T22:51:57.615Z,3.84
2018-01-23T22:54:25.411Z,3.83
2018-01-23T22:56:54.783Z,3.80
2018-01-23T22:59:25.804Z,3.79
2018-01-23T23:02:09.068Z,3.79
2018-01-23T23:04:36.958Z,3.78
2018-01-23T23:07:04.612Z,3.79
2018-01-23T23:09:32.313Z,3.77
2018-01-23T23:11:59.982Z,3.76
2018-01-23T23:14:27.660Z,3.74
2018-01-23T23:16:57.940Z,3.73
2018-01-23T23:19:27.968Z,3.70
2018-01-23T23:22:00.370Z,3.68
2018-01-23T23:24:30.669Z,3.64
2018-01-23T23:26:58.350Z,3.61
2018-01-23T23:29:27.624Z,3.57
2018-01-23T23:31:55.332Z,3.52
2018-01-23T23:34:27.578Z,3.49
2018-01-23T23:36:55.254Z,3.44
2018-01-23T23:39:22.944Z,3.40
2018-01-23T23:41:50.654Z,3.37
2018-01-23T23:44:19.942Z,3.33
2018-01-23T23:46:47.657Z,3.30
2018-01-23T23:49:17.317Z,3.27
2018-01-23T23:51:48.458Z,3.24
2018-01-23T23:54:16.116Z,3.22
2018-01-23T23:56:43.779Z,3.20
2018-01-23T23:59:11.453Z,3.19
